createdAt,value
2022-12-08T00:01:16.679Z,6.36
2022-12-08T00:03:44.242Z,6.29
2022-12-08T00:06:38.928Z,6.22
2022-12-08T00:09:24.360Z,5.71
2022-12-08T00:11:55.793Z,5.99
2022-12-08T00:14:25.394Z,5.82
2022-12-08T00:16:52.519Z,6.00
2022-12-08T00:19:19.683Z,5.88
2022-12-08T00:21:46.636Z,5.41
2022-12-08T00:24:13.718Z,5.37
2022-12-08T00:26:40.694Z,5.26
2022-12-08T00:29:08.702Z,5.45
2022-12-08T00:31:38.058Z,5.33
2022-12-08T00:34:05.087Z,5.37
2022-12-08T00:36:32.425Z,5.50
2022-12-08T00:39:00.081Z,5.34
2022-12-08T00:41:47.294Z,5.69
2022-12-08T00:44:17.161Z,5.49
2022-12-08T00:46:44.124Z,5.72
2022-12-08T00:49:12.010Z,5.48
2022-12-08T00:51:38.884Z,5.79
2022-12-08T00:54:06.784Z,5.76
2022-12-08T00:56:34.889Z,5.78
2022-12-08T00:59:03.344Z,5.83
2022-12-08T01:01:30.777Z,5.67
2022-12-08T01:03:57.859Z,5.43
2022-12-08T01:06:24.724Z,5.72
2022-12-08T01:08:51.743Z,5.78
2022-12-08T01:11:19.743Z,5.70
2022-12-08T01:13:47.192Z,5.46
2022-12-08T01:16:26.096Z,5.49
2022-12-08T01:18:54.059Z,5.62
2022-12-08T01:21:22.059Z,5.94
2022-12-08T01:23:49.089Z,6.03
2022-12-08T01:26:17.897Z,6.01
2022-12-08T01:28:45.882Z,6.04
2022-12-08T01:31:16.939Z,5.81
2022-12-08T01:33:44.701Z,6.05
2022-12-08T01:36:25.055Z,5.63
2022-12-08T01:38:53.248Z,5.98
2022-12-08T01:41:22.608Z,5.95
2022-12-08T01:43:49.435Z,6.01
2022-12-08T01:46:16.482Z,6.01
2022-12-08T01:48:43.782Z,6.04
2022-12-08T01:51:10.803Z,6.08
2022-12-08T01:53:39.217Z,5.98
2022-12-08T01:56:09.292Z,6.14
2022-12-08T01:58:40.068Z,6.20
2022-12-08T02:01:08.512Z,5.78
2022-12-08T02:03:58.653Z,6.16
2022-12-08T02:06:28.898Z,6.17
2022-12-08T02:08:56.903Z,5.92
2022-12-08T02:11:23.799Z,5.88
2022-12-08T02:13:54.555Z,5.94
2022-12-08T02:16:21.547Z,6.22
2022-12-08T02:19:29.289Z,6.10
2022-12-08T02:22:15.724Z,6.08
2022-12-08T02:25:08.157Z,6.07
2022-12-08T02:28:04.763Z,5.85
2022-12-08T02:31:05.373Z,5.83
2022-12-08T02:33:44.071Z,5.93
2022-12-08T02:36:22.828Z,5.78
2022-12-08T02:39:21.980Z,5.62
2022-12-08T02:42:12.445Z,5.76
2022-12-08T02:44:46.162Z,5.44
2022-12-08T02:47:18.023Z,5.47
2022-12-08T02:49:45.156Z,5.27
2022-12-08T02:52:12.007Z,5.70
2022-12-08T02:54:44.415Z,5.42
2022-12-08T02:57:28.288Z,5.69
2022-12-08T03:00:11.734Z,5.68
2022-12-08T03:02:44.505Z,5.65
2022-12-08T03:05:11.512Z,5.68
2022-12-08T03:07:50.172Z,5.49
2022-12-08T03:10:22.077Z,5.22
2022-12-08T03:12:54.349Z,5.71
2022-12-08T03:15:22.782Z,5.39
2022-12-08T03:17:55.456Z,5.13
2022-12-08T03:20:25.315Z,5.26
2022-12-08T03:22:55.909Z,5.62
2022-12-08T03:25:24.872Z,5.51
2022-12-08T03:27:53.527Z,5.18
2022-12-08T03:30:20.409Z,5.20
2022-12-08T03:33:04.297Z,5.63
2022-12-08T03:35:34.643Z,5.29
2022-12-08T03:38:07.706Z,5.26
2022-12-08T03:40:35.440Z,5.60
2022-12-08T03:43:02.610Z,5.39
2022-12-08T03:45:29.927Z,5.45
2022-12-08T03:47:57.196Z,5.51
2022-12-08T03:50:24.856Z,5.72
2022-12-08T03:52:51.845Z,5.58
2022-12-08T03:55:18.768Z,5.62
2022-12-08T03:57:46.101Z,5.69
2022-12-08T04:00:15.841Z,5.52
2022-12-08T04:02:43.314Z,5.61
2022-12-08T04:05:10.827Z,5.34
2022-12-08T04:07:37.905Z,5.62
2022-12-08T04:10:05.792Z,5.85
2022-12-08T04:12:33.052Z,5.47
2022-12-08T04:15:00.111Z,5.30
2022-12-08T04:17:27.354Z,5.43
2022-12-08T04:19:54.253Z,5.48
2022-12-08T04:22:21.252Z,5.56
2022-12-08T04:24:48.491Z,5.50
2022-12-08T04:27:15.456Z,5.42
2022-12-08T04:29:42.413Z,5.74
2022-12-08T04:32:09.349Z,5.82
2022-12-08T04:34:36.404Z,5.62
2022-12-08T04:37:03.389Z,5.88
2022-12-08T04:39:30.291Z,5.56
2022-12-08T04:41:57.254Z,5.86
2022-12-08T04:44:24.230Z,5.54
2022-12-08T04:46:51.264Z,5.84
2022-12-08T04:49:18.298Z,5.61
2022-12-08T04:51:45.253Z,5.72
2022-12-08T04:54:12.209Z,5.46
2022-12-08T04:56:39.360Z,5.82
2022-12-08T04:59:06.349Z,5.65
2022-12-08T05:01:33.538Z,5.84
2022-12-08T05:04:00.627Z,5.83
2022-12-08T05:06:27.600Z,5.84
2022-12-08T05:08:55.097Z,5.29
2022-12-08T05:11:21.986Z,5.51
2022-12-08T05:13:48.845Z,5.27
2022-12-08T05:16:16.531Z,5.71
2022-12-08T05:18:43.864Z,5.74
2022-12-08T05:21:11.463Z,5.88
2022-12-08T05:23:38.735Z,5.87
2022-12-08T05:26:05.896Z,5.74
2022-12-08T05:28:41.306Z,5.72
2022-12-08T05:31:09.139Z,5.75
2022-12-08T05:33:36.056Z,5.79
2022-12-08T05:36:02.966Z,5.67
2022-12-08T05:38:29.974Z,5.74
2022-12-08T05:40:57.369Z,5.72
2022-12-08T05:43:24.306Z,5.64
2022-12-08T05:45:51.219Z,5.41
2022-12-08T05:48:18.289Z,5.67
2022-12-08T05:50:48.633Z,5.74
2022-12-08T05:53:16.653Z,5.73
2022-12-08T05:55:43.761Z,5.56
2022-12-08T05:58:14.681Z,5.71
2022-12-08T06:00:42.205Z,5.71
2022-12-08T06:03:11.638Z,5.55
2022-12-08T06:05:38.552Z,5.70
2022-12-08T06:08:05.648Z,5.69
2022-12-08T06:10:32.649Z,5.47
2022-12-08T06:12:59.606Z,5.42
2022-12-08T06:15:26.955Z,5.71
2022-12-08T06:17:53.810Z,5.57
2022-12-08T06:20:20.808Z,5.50
2022-12-08T06:22:47.754Z,5.50
2022-12-08T06:25:14.609Z,5.39
2022-12-08T06:27:41.563Z,5.70
2022-12-08T06:30:08.963Z,5.32
2022-12-08T06:32:37.610Z,5.65
2022-12-08T06:35:04.963Z,5.67
2022-12-08T06:37:32.394Z,5.48
2022-12-08T06:39:59.476Z,5.48
2022-12-08T06:42:45.017Z,5.36
2022-12-08T06:45:16.676Z,5.62
2022-12-08T06:47:44.249Z,5.69
2022-12-08T06:50:11.803Z,5.57
2022-12-08T06:52:47.210Z,5.58
2022-12-08T06:55:35.343Z,5.56
2022-12-08T06:58:01.484Z,5.69
2022-12-08T07:00:28.352Z,5.39
2022-12-08T07:02:55.349Z,5.64
2022-12-08T07:05:22.343Z,5.72
2022-12-08T07:07:49.327Z,5.73
2022-12-08T07:10:16.414Z,5.77
2022-12-08T07:12:43.304Z,5.49
2022-12-08T07:15:10.812Z,5.39
2022-12-08T07:17:37.711Z,5.76
2022-12-08T07:20:05.481Z,5.59
2022-12-08T07:22:32.795Z,5.69
2022-12-08T07:24:59.740Z,5.79
2022-12-08T07:27:26.756Z,5.46
2022-12-08T07:29:53.752Z,5.82
2022-12-08T07:32:20.646Z,5.80
2022-12-08T07:34:47.610Z,5.65
2022-12-08T07:37:14.701Z,5.85
2022-12-08T07:39:41.686Z,5.88
2022-12-08T07:42:08.681Z,5.91
2022-12-08T07:44:37.398Z,5.82
2022-12-08T07:47:04.409Z,5.41
2022-12-08T07:49:31.333Z,5.91
2022-12-08T07:51:58.207Z,6.06
2022-12-08T07:54:25.116Z,6.32
2022-12-08T07:56:52.083Z,6.10
2022-12-08T07:59:19.787Z,6.35
2022-12-08T08:01:56.233Z,6.29
2022-12-08T08:04:34.918Z,6.68
2022-12-08T08:07:01.880Z,6.68
2022-12-08T08:09:28.791Z,6.54
2022-12-08T08:12:22.396Z,6.71
2022-12-08T08:14:42.600Z,6.97
2022-12-08T08:17:09.696Z,6.85
2022-12-08T08:19:36.697Z,6.98
2022-12-08T08:22:03.667Z,7.05
2022-12-08T08:24:30.597Z,7.20
2022-12-08T08:26:57.674Z,7.10
2022-12-08T08:29:24.756Z,7.25
2022-12-08T08:31:51.681Z,7.40
2022-12-08T08:34:18.648Z,7.37
2022-12-08T08:36:45.639Z,7.47
2022-12-08T08:39:13.481Z,7.58
2022-12-08T08:41:40.536Z,7.62
2022-12-08T08:44:07.613Z,7.46
2022-12-08T08:46:34.729Z,7.61
2022-12-08T08:49:01.702Z,7.75
2022-12-08T08:51:28.775Z,7.61
2022-12-08T08:53:55.765Z,7.89
2022-12-08T08:56:23.013Z,7.69
2022-12-08T08:58:51.202Z,7.96
2022-12-08T09:01:21.304Z,7.93
2022-12-08T09:03:49.191Z,7.96
2022-12-08T09:06:16.669Z,8.07
2022-12-08T09:08:45.053Z,7.97
2022-12-08T09:11:12.267Z,8.12
2022-12-08T09:13:39.526Z,8.14
2022-12-08T09:16:08.414Z,8.42
2022-12-08T09:18:35.656Z,8.49
2022-12-08T09:21:13.295Z,8.52
2022-12-08T09:23:40.334Z,8.38
2022-12-08T09:26:07.541Z,8.77
2022-12-08T09:28:34.886Z,8.87
2022-12-08T09:31:02.200Z,8.82
2022-12-08T09:33:29.442Z,8.63
2022-12-08T09:35:56.759Z,8.90
2022-12-08T09:38:23.792Z,8.61
2022-12-08T09:40:53.232Z,8.68
2022-12-08T09:43:38.313Z,9.04
2022-12-08T09:46:07.958Z,9.08
2022-12-08T09:48:57.256Z,8.98
2022-12-08T09:51:25.902Z,9.05
2022-12-08T09:54:01.580Z,9.17
2022-12-08T09:56:33.071Z,9.18
2022-12-08T09:59:05.709Z,9.16
2022-12-08T10:01:38.499Z,9.37
2022-12-08T10:04:33.844Z,9.58
2022-12-08T10:07:04.932Z,9.62
2022-12-08T10:09:34.862Z,9.62
2022-12-08T10:12:17.950Z,9.70
2022-12-08T10:14:53.394Z,9.38
2022-12-08T10:17:25.071Z,9.61
2022-12-08T10:20:00.303Z,9.72
2022-12-08T10:22:34.084Z,9.98
2022-12-08T10:25:34.389Z,10.07
2022-12-08T10:28:01.497Z,9.85
2022-12-08T10:30:28.383Z,10.07
2022-12-08T10:32:55.540Z,9.92
2022-12-08T10:35:23.824Z,9.93
2022-12-08T10:37:58.989Z,10.17
2022-12-08T10:40:39.094Z,9.99
2022-12-08T10:43:24.848Z,9.93
2022-12-08T10:45:51.960Z,9.93
2022-12-08T10:48:22.777Z,10.09
2022-12-08T10:50:52.865Z,9.96
2022-12-08T10:53:31.891Z,10.02
2022-12-08T10:56:01.944Z,9.91
2022-12-08T10:58:43.467Z,9.86
2022-12-08T11:01:26.747Z,9.28
2022-12-08T11:04:05.727Z,9.87
2022-12-08T11:06:37.782Z,9.66
2022-12-08T11:09:22.305Z,9.61
2022-12-08T11:11:59.606Z,9.94
2022-12-08T11:14:32.545Z,9.94
2022-12-08T11:17:05.274Z,9.89
2022-12-08T11:19:38.261Z,9.84
2022-12-08T11:22:38.004Z,9.89
2022-12-08T11:25:08.000Z,9.91
2022-12-08T11:27:37.272Z,9.80
2022-12-08T11:30:15.101Z,9.83
2022-12-08T11:32:45.011Z,9.81
2022-12-08T11:35:27.257Z,9.79
2022-12-08T11:38:08.055Z,9.78
2022-12-08T11:40:44.894Z,9.62
2022-12-08T11:43:36.709Z,9.79
2022-12-08T11:46:15.734Z,9.52
2022-12-08T11:49:11.282Z,9.42
2022-12-08T11:51:48.379Z,9.58
2022-12-08T11:54:26.879Z,9.23
2022-12-08T11:56:58.800Z,9.47
2022-12-08T11:59:34.862Z,9.46
2022-12-08T12:02:04.551Z,9.51
2022-12-08T12:04:39.871Z,9.50
2022-12-08T12:07:12.715Z,9.47
2022-12-08T12:09:59.838Z,9.49
2022-12-08T12:12:43.091Z,9.57
2022-12-08T12:15:30.729Z,9.54
2022-12-08T12:18:02.401Z,9.32
2022-12-08T12:20:33.713Z,9.55
2022-12-08T12:23:07.497Z,9.42
2022-12-08T12:25:37.053Z,9.41
2022-12-08T12:28:09.225Z,9.39
2022-12-08T12:30:59.242Z,9.24
2022-12-08T12:33:27.372Z,9.45
2022-12-08T12:35:58.114Z,9.19
2022-12-08T12:38:54.167Z,9.35
2022-12-08T12:41:52.715Z,9.07
2022-12-08T12:44:19.580Z,9.21
2022-12-08T12:46:46.513Z,9.14
2022-12-08T12:49:38.181Z,9.22
2022-12-08T12:52:18.226Z,9.30
2022-12-08T12:55:10.835Z,9.37
2022-12-08T12:57:37.807Z,9.30
2022-12-08T13:00:04.710Z,9.20
2022-12-08T13:02:45.438Z,9.21
2022-12-08T13:05:18.638Z,9.22
2022-12-08T13:07:52.539Z,9.24
2022-12-08T13:10:24.073Z,9.29
2022-12-08T13:13:05.608Z,9.21
2022-12-08T13:15:41.488Z,9.18
2022-12-08T13:18:23.995Z,9.09
2022-12-08T13:20:55.182Z,9.07
2022-12-08T13:23:42.791Z,9.16
2022-12-08T13:26:17.367Z,9.21
2022-12-08T13:29:00.085Z,9.23
2022-12-08T13:31:37.520Z,9.14
2022-12-08T13:34:07.085Z,9.11
2022-12-08T13:36:39.045Z,9.13
2022-12-08T13:39:07.225Z,9.09
2022-12-08T13:41:44.812Z,9.03
2022-12-08T13:47:33.499Z,9.26
2022-12-08T13:53:49.676Z,9.20
2022-12-08T13:56:59.458Z,9.20
2022-12-08T13:58:47.742Z,9.29
2022-12-08T14:01:22.420Z,9.38
2022-12-08T14:04:12.897Z,9.24
2022-12-08T14:06:38.921Z,9.36
2022-12-08T14:09:11.062Z,9.14
2022-12-08T14:11:45.239Z,9.19
2022-12-08T14:14:46.046Z,9.14
2022-12-08T14:17:15.445Z,9.25
2022-12-08T14:19:55.801Z,9.25
2022-12-08T14:22:23.899Z,9.33
2022-12-08T14:24:54.917Z,9.04
2022-12-08T14:27:24.188Z,9.00
2022-12-08T14:30:00.284Z,8.98
2022-12-08T14:32:34.347Z,9.19
2022-12-08T14:35:07.761Z,9.03
2022-12-08T14:37:38.620Z,9.00
2022-12-08T14:40:10.637Z,8.90
2022-12-08T14:42:46.644Z,9.18
2022-12-08T14:45:16.249Z,9.18
2022-12-08T14:47:43.913Z,9.10
2022-12-08T14:50:35.716Z,9.29
2022-12-08T14:53:03.502Z,9.31
2022-12-08T14:55:37.801Z,9.09
2022-12-08T14:58:05.257Z,8.86
2022-12-08T15:00:33.494Z,9.20
2022-12-08T15:03:07.926Z,9.21
2022-12-08T15:05:35.194Z,9.43
2022-12-08T15:08:04.070Z,9.37
2022-12-08T15:10:35.606Z,9.27
2022-12-08T15:13:05.578Z,9.36
2022-12-08T15:15:46.129Z,9.10
2022-12-08T15:18:38.029Z,9.41
2022-12-08T15:21:09.224Z,9.24
2022-12-08T15:23:50.150Z,9.29
2022-12-08T15:26:28.223Z,9.33
2022-12-08T15:28:55.709Z,9.38
2022-12-08T15:31:22.830Z,9.37
2022-12-08T15:33:49.900Z,9.36
2022-12-08T15:36:16.896Z,9.37
2022-12-08T15:38:43.854Z,9.29
2022-12-08T15:41:14.947Z,9.32
2022-12-08T15:43:42.685Z,9.00
2022-12-08T15:46:09.726Z,8.94
2022-12-08T15:48:37.901Z,8.89
2022-12-08T15:51:04.871Z,8.99
2022-12-08T15:53:31.822Z,9.03
2022-12-08T15:58:56.190Z,8.76
2022-12-08T16:01:24.672Z,8.89
2022-12-08T16:09:36.263Z,8.53
2022-12-08T16:12:22.254Z,8.73
2022-12-08T16:17:37.752Z,8.56
2022-12-08T16:20:17.006Z,8.58
2022-12-08T16:22:59.280Z,8.07
2022-12-08T16:25:46.068Z,8.19
2022-12-08T16:28:52.189Z,8.40
2022-12-08T16:31:08.840Z,8.14
2022-12-08T16:33:38.724Z,8.31
2022-12-08T16:36:05.829Z,8.14
2022-12-08T16:38:33.043Z,8.14
2022-12-08T16:41:18.836Z,8.31
2022-12-08T16:43:45.739Z,8.07
2022-12-08T16:46:23.258Z,8.21
2022-12-08T16:48:50.314Z,8.19
2022-12-08T16:51:23.431Z,8.21
2022-12-08T16:53:53.679Z,8.09
2022-12-08T16:56:24.140Z,7.82
2022-12-08T16:58:55.894Z,8.29
2022-12-08T17:01:23.925Z,8.22
2022-12-08T17:04:14.392Z,7.99
2022-12-08T17:06:37.965Z,8.01
2022-12-08T17:09:04.978Z,8.15
2022-12-08T17:11:36.236Z,8.12
2022-12-08T17:14:06.202Z,8.23
2022-12-08T17:16:33.194Z,7.97
2022-12-08T17:19:00.241Z,8.14
2022-12-08T17:21:27.204Z,7.77
2022-12-08T17:23:54.845Z,8.17
2022-12-08T17:26:21.821Z,8.13
2022-12-08T17:29:04.018Z,8.19
2022-12-08T17:31:32.621Z,8.02
2022-12-08T17:34:04.848Z,7.96
2022-12-08T17:36:32.223Z,8.11
2022-12-08T17:39:00.551Z,8.17
2022-12-08T17:41:28.213Z,8.02
2022-12-08T17:43:55.314Z,7.90
2022-12-08T17:46:23.357Z,8.13
2022-12-08T17:48:50.504Z,8.28
2022-12-08T17:51:17.871Z,7.98
2022-12-08T17:53:45.061Z,8.19
2022-12-08T17:56:20.726Z,8.09
2022-12-08T17:58:52.852Z,8.11
2022-12-08T18:01:23.347Z,7.98
2022-12-08T18:03:50.899Z,7.92
2022-12-08T18:06:17.930Z,7.91
2022-12-08T18:08:45.175Z,7.97
2022-12-08T18:11:18.737Z,7.75
2022-12-08T18:13:47.476Z,7.59
2022-12-08T18:16:15.654Z,7.88
2022-12-08T18:18:42.648Z,7.76
2022-12-08T18:21:10.084Z,7.55
2022-12-08T18:23:38.081Z,7.92
2022-12-08T18:26:09.909Z,7.97
2022-12-08T18:28:38.314Z,7.88
2022-12-08T18:31:14.797Z,7.91
2022-12-08T18:33:43.582Z,7.71
2022-12-08T18:36:14.149Z,7.62
2022-12-08T18:38:41.057Z,7.65
2022-12-08T18:41:09.914Z,7.77
2022-12-08T18:43:37.946Z,8.01
2022-12-08T18:46:09.565Z,7.86
2022-12-08T18:48:38.852Z,7.92
2022-12-08T18:51:13.239Z,7.77
2022-12-08T18:53:40.751Z,7.50
2022-12-08T18:56:08.852Z,7.82
2022-12-08T18:58:35.978Z,7.85
2022-12-08T19:01:03.057Z,7.68
2022-12-08T19:03:30.053Z,7.50
2022-12-08T19:06:07.427Z,7.39
2022-12-08T19:08:34.412Z,7.21
2022-12-08T19:11:01.716Z,7.64
2022-12-08T19:13:28.862Z,7.67
2022-12-08T19:15:56.000Z,7.60
2022-12-08T19:18:23.104Z,7.53
2022-12-08T19:20:50.231Z,7.43
2022-12-08T19:23:17.173Z,7.42
2022-12-08T19:25:44.154Z,7.83
2022-12-08T19:28:11.092Z,7.45
2022-12-08T19:30:38.162Z,7.61
2022-12-08T19:33:05.171Z,7.64
2022-12-08T19:35:32.149Z,7.72
2022-12-08T19:37:59.092Z,7.53
2022-12-08T19:40:44.581Z,7.44
2022-12-08T19:43:37.464Z,7.68
2022-12-08T19:46:04.639Z,7.59
2022-12-08T19:48:31.711Z,7.65
2022-12-08T19:50:59.072Z,7.57
2022-12-08T19:53:26.333Z,7.90
2022-12-08T19:55:53.388Z,7.66
2022-12-08T19:58:20.549Z,7.88
2022-12-08T20:00:48.085Z,7.80
2022-12-08T20:03:20.464Z,7.48
2022-12-08T20:05:49.761Z,7.82
2022-12-08T20:08:17.219Z,7.44
2022-12-08T20:10:45.240Z,7.50
2022-12-08T20:13:31.537Z,7.50
2022-12-08T20:15:58.800Z,7.46
2022-12-08T20:18:25.918Z,7.76
2022-12-08T20:20:53.096Z,7.69
2022-12-08T20:23:20.014Z,7.82
2022-12-08T20:25:48.001Z,7.91
2022-12-08T20:28:15.133Z,7.93
2022-12-08T20:30:42.965Z,8.02
2022-12-08T20:33:13.765Z,8.08
2022-12-08T20:35:41.599Z,7.89
2022-12-08T20:38:08.754Z,7.91
2022-12-08T20:40:35.836Z,7.97
2022-12-08T20:43:02.953Z,7.97
2022-12-08T20:45:30.015Z,8.04
2022-12-08T20:47:56.966Z,8.05
2022-12-08T20:50:23.931Z,7.86
2022-12-08T20:52:50.957Z,8.09
2022-12-08T20:55:18.256Z,7.92
2022-12-08T20:57:45.257Z,7.88
2022-12-08T21:00:12.905Z,7.92
2022-12-08T21:02:46.925Z,8.15
2022-12-08T21:05:16.359Z,8.05
2022-12-08T21:07:43.640Z,7.83
2022-12-08T21:10:11.006Z,7.96
2022-12-08T21:12:38.298Z,8.15
2022-12-08T21:15:07.696Z,8.15
2022-12-08T21:17:34.918Z,8.24
2022-12-08T21:20:02.458Z,8.32
2022-12-08T21:22:29.471Z,8.28
2022-12-08T21:24:56.624Z,7.77
2022-12-08T21:27:23.700Z,8.02
2022-12-08T21:29:50.590Z,8.19
2022-12-08T21:32:17.661Z,8.21
2022-12-08T21:34:45.595Z,8.03
2022-12-08T21:37:12.687Z,8.23
2022-12-08T21:39:39.747Z,8.28
2022-12-08T21:42:30.791Z,8.09
2022-12-08T21:45:01.319Z,8.02
2022-12-08T21:47:28.520Z,7.95
2022-12-08T21:49:55.711Z,7.78
2022-12-08T21:52:23.031Z,8.08
2022-12-08T21:54:50.030Z,7.99
2022-12-08T21:57:17.044Z,8.21
2022-12-08T21:59:44.102Z,8.16
2022-12-08T22:02:19.558Z,8.20
2022-12-08T22:04:50.261Z,8.22
2022-12-08T22:07:17.743Z,7.99
2022-12-08T22:09:44.799Z,8.25
2022-12-08T22:12:12.342Z,8.15
2022-12-08T22:14:40.813Z,7.97
2022-12-08T22:17:08.057Z,8.19
2022-12-08T22:19:35.482Z,7.86
2022-12-08T22:22:03.195Z,7.91
2022-12-08T22:24:31.283Z,8.29
2022-12-08T22:26:58.323Z,8.00
2022-12-08T22:29:25.335Z,8.09
2022-12-08T22:31:52.333Z,8.14
2022-12-08T22:34:19.529Z,7.85
2022-12-08T22:36:46.513Z,8.07
2022-12-08T22:39:13.431Z,8.15
2022-12-08T22:41:40.613Z,7.93
2022-12-08T22:44:08.080Z,7.88
2022-12-08T22:46:35.190Z,8.03
2022-12-08T22:49:02.623Z,7.62
2022-12-08T22:51:29.699Z,7.84
2022-12-08T22:53:56.822Z,7.76
2022-12-08T22:56:23.788Z,7.72
2022-12-08T22:58:51.657Z,7.56
2022-12-08T23:01:31.245Z,7.85
2022-12-08T23:04:01.387Z,7.85
2022-12-08T23:06:30.316Z,7.60
2022-12-08T23:08:57.903Z,7.61
2022-12-08T23:11:28.048Z,7.59
2022-12-08T23:13:56.409Z,7.85
2022-12-08T23:16:23.535Z,7.72
2022-12-08T23:18:50.943Z,7.62
2022-12-08T23:21:19.576Z,7.59
2022-12-08T23:23:46.950Z,7.72
2022-12-08T23:26:27.971Z,7.82
2022-12-08T23:28:56.382Z,7.60
2022-12-08T23:31:24.205Z,7.70
2022-12-08T23:33:51.865Z,7.67
2022-12-08T23:36:21.124Z,7.76
2022-12-08T23:38:48.524Z,7.76
2022-12-08T23:41:16.558Z,7.67
2022-12-08T23:43:51.879Z,7.88
2022-12-08T23:46:21.751Z,7.59
2022-12-08T23:48:49.725Z,7.43
2022-12-08T23:51:17.167Z,7.81
2022-12-08T23:53:44.564Z,7.77
2022-12-08T23:56:15.561Z,7.40
2022-12-08T23:58:44.112Z,7.76
